This is the latest recevied weather packets stored in our database for station/object HB9GPU-10. If no packets are shown the sender has not sent any weather packets the latest 10 day(s).
| Time | Temp. | Humidity | Pressure | Rain* | Wind** | Luminosity | Snow |
|---|---|---|---|---|---|---|---|
| 1788643181 | 24.44° C | 40% | 1030.2 hPa | - | - | - | - |
| 1788642281 | 24.44° C | 40% | 1030.1 hPa | - | - | - | - |
| 1788641381 | 24.44° C | 41% | 1030 hPa | - | - | - | - |
| 1788640481 | 24.44° C | 41% | 1030 hPa | - | - | - | - |
| 1788639581 | 24.44° C | 40% | 1030 hPa | - | - | - | - |
| 1788638681 | 24.44° C | 40% | 1029.8 hPa | - | - | - | - |
| 1788637780 | 24.44° C | 41% | 1029.9 hPa | - | - | - | - |
| 1788636880 | 24.44° C | 41% | 1029.8 hPa | - | - | - | - |
| 1788635980 | 25° C | 40% | 1029.7 hPa | - | - | - | - |
| 1788635080 | 24.44° C | 40% | 1029.7 hPa | - | - | - | - |
| 1788634180 | 25° C | 40% | 1029.7 hPa | - | - | - | - |
| 1788633279 | 24.44° C | 41% | 1029.5 hPa | - | - | - | - |
| 1788632379 | 24.44° C | 42% | 1029.4 hPa | - | - | - | - |
| 1788631479 | 25° C | 41% | 1029.4 hPa | - | - | - | - |
| 1788630579 | 25° C | 41% | 1029.2 hPa | - | - | - | - |
| 1788629679 | 24.44° C | 41% | 1029.2 hPa | - | - | - | - |
| 1788628779 | 24.44° C | 42% | 1029.2 hPa | - | - | - | - |
| 1788627878 | 25° C | 40% | 1029.1 hPa | - | - | - | - |
| 1788626978 | 24.44° C | 42% | 1029.2 hPa | - | - | - | - |
| 1788626080 | 23.89° C | 44% | 1029.1 hPa | - | - | - | - |
| 1788625180 | 23.89° C | 43% | 1029 hPa | - | - | - | - |
| 1788624278 | 23.89° C | 44% | 1028.8 hPa | - | - | - | - |
| 1788623377 | 24.44° C | 42% | 1028.6 hPa | - | - | - | - |
| 1788622477 | 24.44° C | 44% | 1028.4 hPa | - | - | - | - |
| 1788621577 | 26.11° C | 39% | 1028.3 hPa | - | - | - | - |
* Rain since midnight (hover to see other rain measurements)
** Current wind speed in m/s (hover to see current wind gust speed)